Time;durP1;ratioP1;P1;durP2;ratioP2;P2;SDS_P1;SDS_P2;PMS_P1;PMS_P2;Temp;Humidity;BMP_temperature;BMP_pressure;BME280_temperature;BME280_humidity;BME280_pressure;Samples;Min_cycle;Max_cycle;Signal;HPM_P1;HPM_P2
2022/05/06 00:02:04;;;;;;;23.67;18.33;;;;;;;12.49;91.25;98623.34;5076708;28;20271;-70
2022/05/06 00:04:31;;;;;;;23.83;19.27;;;;;;;12.57;90.25;98622.25;5076622;28;20572;-71
2022/05/06 00:06:57;;;;;;;23.33;19.10;;;;;;;12.44;93.40;98623.13;5076439;28;20568;-71
2022/05/06 00:09:24;;;;;;;22.87;18.43;;;;;;;12.44;92.94;98635.69;5076518;28;20206;-71
2022/05/06 00:11:51;;;;;;;23.77;18.90;;;;;;;12.46;91.06;98622.94;5076431;28;20205;-71
2022/05/06 00:14:18;;;;;;;25.03;19.33;;;;;;;12.50;92.00;98621.47;5076107;28;20206;-71
2022/05/06 00:16:44;;;;;;;24.93;18.70;;;;;;;12.47;92.39;98620.06;5076270;28;20209;-71
2022/05/06 00:19:11;;;;;;;26.50;19.47;;;;;;;12.41;91.64;98628.94;5076282;28;20218;-70
2022/05/06 00:21:37;;;;;;;26.37;20.23;;;;;;;12.45;91.32;98623.97;5076280;28;20205;-70
2022/05/06 00:24:05;;;;;;;27.10;19.17;;;;;;;12.46;91.39;98623.75;5076256;28;20213;-71
2022/05/06 00:26:31;;;;;;;27.63;19.77;;;;;;;12.54;92.01;98620.00;5076205;28;20214;-71
2022/05/06 00:28:58;;;;;;;22.57;19.33;;;;;;;12.54;92.56;98625.34;5076132;28;20233;-71
2022/05/06 00:31:25;;;;;;;25.03;20.40;;;;;;;12.40;93.61;98621.13;5076630;28;20240;-71
2022/05/06 00:33:51;;;;;;;25.27;19.73;;;;;;;12.40;93.07;98626.47;5075814;28;20210;-71
2022/05/06 00:36:17;;;;;;;23.80;20.07;;;;;;;12.33;94.28;98629.19;5076084;28;20241;-71
2022/05/06 00:38:44;;;;;;;24.30;19.43;;;;;;;12.34;93.82;98635.34;5075662;28;20230;-70
2022/05/06 00:41:10;;;;;;;23.27;19.50;;;;;;;12.33;94.01;98626.50;5076432;28;20226;-71
2022/05/06 00:43:43;;;;;;;23.50;19.70;;;;;;;12.35;92.38;98626.31;5075320;28;20210;-71
2022/05/06 00:46:16;;;;;;;24.43;20.73;;;;;;;12.33;93.21;98623.84;5075894;28;20212;-71
2022/05/06 00:48:46;;;;;;;24.30;20.37;;;;;;;12.37;92.49;98622.38;5075917;28;20238;-71
2022/05/06 00:51:13;;;;;;;28.43;19.77;;;;;;;12.34;93.51;98625.47;5076515;28;20211;-70
2022/05/06 00:53:43;;;;;;;29.83;21.30;;;;;;;12.30;95.23;98618.94;5075363;28;20608;-70
2022/05/06 00:56:11;;;;;;;24.60;20.60;;;;;;;12.32;94.90;98624.91;5075654;28;20210;-71
2022/05/06 00:58:38;;;;;;;26.10;20.20;;;;;;;12.35;92.89;98627.09;5075262;28;20234;-71
2022/05/06 01:01:06;;;;;;;25.43;20.07;;;;;;;12.39;93.61;98612.31;5075566;28;20228;-71
2022/05/06 01:03:33;;;;;;;26.57;20.90;;;;;;;12.32;93.14;98619.56;5075518;28;20213;-71
2022/05/06 01:06:02;;;;;;;29.63;20.03;;;;;;;12.33;93.19;98615.03;5075469;28;20211;-70
2022/05/06 01:08:29;;;;;;;24.50;20.83;;;;;;;12.27;94.70;98621.22;5075307;28;20705;-71
2022/05/06 01:10:55;;;;;;;25.07;21.27;;;;;;;12.31;93.73;98606.44;5075391;28;20205;-70
2022/05/06 01:13:21;;;;;;;26.03;20.17;;;;;;;12.41;93.76;98620.94;5075351;28;20216;-71
2022/05/06 01:15:48;;;;;;;27.13;21.00;;;;;;;12.39;93.08;98622.19;5075284;28;20205;-71
2022/05/06 01:18:14;;;;;;;23.73;19.87;;;;;;;12.29;94.53;98625.31;5074867;28;20704;-71
2022/05/06 01:20:49;;;;;;;25.27;20.73;;;;;;;12.28;93.82;98621.03;5074772;28;20575;-71
2022/05/06 01:23:15;;;;;;;23.73;20.30;;;;;;;12.33;93.80;98626.50;5075199;28;20194;-70
2022/05/06 01:25:43;;;;;;;24.47;20.27;;;;;;;12.38;93.58;98621.34;5075600;28;20205;-71
2022/05/06 01:28:13;;;;;;;27.87;21.63;;;;;;;12.25;94.22;98623.31;5074960;28;20232;-71
2022/05/06 01:30:44;;;;;;;29.37;20.07;;;;;;;12.23;94.67;98630.69;5074975;28;20202;-71
2022/05/06 01:33:16;;;;;;;24.17;20.40;;;;;;;12.22;94.35;98627.22;5075025;28;20187;-70
2022/05/06 01:35:50;;;;;;;23.93;19.97;;;;;;;12.26;94.51;98628.41;5074646;28;20716;-71
2022/05/06 01:38:43;;;;;;;26.37;20.37;;;;;;;12.18;94.79;98630.50;5075071;28;20226;-71
2022/05/06 01:41:24;;;;;;;28.10;20.47;;;;;;;12.14;94.64;98630.13;5070047;28;20232;-71
2022/05/06 01:43:54;;;;;;;26.83;21.37;;;;;;;12.18;95.12;98631.34;5074653;28;20213;-71
2022/05/06 01:46:23;;;;;;;24.07;20.33;;;;;;;12.21;94.01;98636.22;5075221;28;20189;-70
2022/05/06 01:48:51;;;;;;;25.90;20.50;;;;;;;12.28;93.54;98638.84;5074544;28;20233;-71
2022/05/06 01:51:20;;;;;;;24.40;19.97;;;;;;;12.22;94.07;98631.72;5074243;28;20691;-71
2022/05/06 01:53:47;;;;;;;25.53;19.77;;;;;;;12.18;95.18;98627.84;5073176;28;20675;-70
2022/05/06 01:56:13;;;;;;;26.00;21.03;;;;;;;12.18;94.84;98636.69;5074459;28;20292;-70
2022/05/06 01:58:40;;;;;;;22.20;19.80;;;;;;;12.20;94.29;98629.28;5074335;28;20234;-71
2022/05/06 02:01:06;;;;;;;23.27;20.77;;;;;;;12.15;94.08;98638.94;5074312;28;20260;-71
2022/05/06 02:06:17;;;;;;;22.00;18.57;;;;;;;12.19;95.41;98630.31;5074066;28;20643;-71
2022/05/06 02:08:43;;;;;;;22.27;19.13;;;;;;;12.13;95.61;98636.50;5074121;28;20234;-71
2022/05/06 02:11:11;;;;;;;25.17;19.53;;;;;;;12.11;94.77;98633.22;5074165;28;20214;-71
2022/05/06 02:13:38;;;;;;;22.97;18.33;;;;;;;12.21;93.79;98633.56;5074107;28;20213;-70
2022/05/06 02:16:04;;;;;;;20.57;18.03;;;;;;;12.31;92.86;98635.75;5074102;28;20217;-71
2022/05/06 02:18:31;;;;;;;25.30;20.10;;;;;;;12.24;93.36;98630.47;5074028;28;20223;-71
2022/05/06 02:20:58;;;;;;;23.67;18.67;;;;;;;12.19;93.39;98627.63;5073988;28;20255;-70
2022/05/06 02:23:25;;;;;;;20.33;18.20;;;;;;;12.22;93.13;98624.56;5073753;28;20213;-71
2022/05/06 02:25:52;;;;;;;22.63;18.67;;;;;;;12.19;94.29;98632.16;5073980;28;20227;-71
2022/05/06 02:28:18;;;;;;;22.33;17.83;;;;;;;12.26;93.23;98623.06;5073848;28;20221;-71
2022/05/06 02:33:31;;;;;;;22.97;18.30;;;;;;;12.21;92.98;98628.22;5073946;28;20227;-71
2022/05/06 02:35:59;;;;;;;21.93;17.43;;;;;;;12.19;93.43;98626.81;5073831;28;20237;-70
2022/05/06 02:38:26;;;;;;;22.63;17.70;;;;;;;12.21;93.16;98635.44;5073741;28;20311;-71
2022/05/06 02:40:53;;;;;;;23.27;17.97;;;;;;;12.13;93.84;98633.84;5073686;28;20250;-71
2022/05/06 02:43:19;;;;;;;22.53;17.73;;;;;;;12.16;93.55;98627.25;5073744;28;20204;-71
2022/05/06 02:45:46;;;;;;;21.53;18.33;;;;;;;12.15;93.37;98637.09;5073756;28;20208;-71
2022/05/06 02:48:12;;;;;;;21.80;18.37;;;;;;;12.12;93.41;98631.38;5073659;28;20232;-71
2022/05/06 02:50:41;;;;;;;22.13;18.60;;;;;;;12.06;94.55;98634.88;5073340;28;20208;-71
2022/05/06 02:53:07;;;;;;;22.37;18.17;;;;;;;12.02;95.06;98629.19;5073208;28;20216;-70
2022/05/06 02:55:34;;;;;;;21.80;18.50;;;;;;;12.04;94.88;98634.28;5073597;28;20201;-71
2022/05/06 02:58:00;;;;;;;20.27;18.07;;;;;;;12.01;95.20;98637.38;5073506;28;20220;-71
2022/05/06 03:00:28;;;;;;;24.63;18.30;;;;;;;12.04;95.60;98631.63;5073489;28;20229;-71
2022/05/06 03:02:56;;;;;;;21.93;18.20;;;;;;;11.98;95.11;98632.50;5073486;28;20217;-71
2022/05/06 03:05:23;;;;;;;19.30;17.10;;;;;;;11.94;95.33;98629.41;5072964;28;20689;-71
2022/05/06 03:07:51;;;;;;;20.13;17.97;;;;;;;11.95;96.30;98632.91;5073440;28;20228;-71
2022/05/06 03:10:17;;;;;;;24.07;18.60;;;;;;;11.96;95.39;98629.22;5073153;28;20232;-70
2022/05/06 03:12:46;;;;;;;24.70;19.40;;;;;;;11.99;96.55;98626.97;5073472;28;20283;-71
2022/05/06 03:15:13;;;;;;;20.73;18.57;;;;;;;12.04;95.51;98619.13;5073393;28;20264;-71
2022/05/06 03:17:39;;;;;;;21.27;17.23;;;;;;;12.00;95.72;98623.25;5073321;28;20233;-70
2022/05/06 03:20:08;;;;;;;20.83;18.23;;;;;;;11.97;95.92;98622.84;5073261;28;20204;-71
2022/05/06 03:22:40;;;;;;;21.83;16.57;;;;;;;12.01;95.10;98630.22;5073046;28;20205;-70
2022/05/06 03:25:07;;;;;;;19.70;17.10;;;;;;;12.08;94.61;98622.19;5073028;28;20636;-71
2022/05/06 03:30:19;;;;;;;20.23;16.40;;;;;;;12.03;94.97;98625.47;5073026;28;20180;-71
2022/05/06 03:32:46;;;;;;;19.97;16.23;;;;;;;12.07;94.84;98632.00;5073242;28;20209;-71
2022/05/06 03:35:12;;;;;;;19.43;15.73;;;;;;;12.09;95.00;98623.81;5071887;28;20208;-71
2022/05/06 03:37:39;;;;;;;17.90;15.07;;;;;;;12.09;94.84;98626.47;5073044;28;20232;-70
2022/05/06 03:40:06;;;;;;;18.37;15.33;;;;;;;12.16;93.66;98622.72;5072978;28;20206;-71
2022/05/06 03:42:33;;;;;;;17.83;13.90;;;;;;;12.10;95.07;98628.09;5072689;28;20695;-71
2022/05/06 03:45:02;;;;;;;18.60;14.43;;;;;;;12.09;95.10;98632.63;5072912;28;20215;-71
2022/05/06 03:47:29;;;;;;;19.63;14.33;;;;;;;12.19;93.31;98635.63;5072904;28;20321;-71
2022/05/06 03:52:36;;;;;;;17.87;14.80;;;;;;;12.08;94.59;98638.16;5072333;28;20294;-71
2022/05/06 03:55:02;;;;;;;17.40;14.47;;;;;;;12.08;93.80;98630.97;5072946;28;20205;-71
2022/05/06 03:57:29;;;;;;;17.30;15.17;;;;;;;12.09;94.17;98640.63;5072861;28;20240;-71
2022/05/06 03:59:55;;;;;;;18.07;15.77;;;;;;;12.02;94.72;98641.69;5072634;28;20222;-71
2022/05/06 04:02:21;;;;;;;20.83;15.03;;;;;;;12.02;95.33;98639.03;5072809;28;20224;-71
2022/05/06 04:04:48;;;;;;;20.03;16.07;;;;;;;12.01;96.27;98638.22;5072845;28;20215;-70
2022/05/06 04:07:15;;;;;;;17.40;15.37;;;;;;;12.00;95.79;98644.56;5072731;28;20226;-70
2022/05/06 04:09:44;;;;;;;20.67;15.57;;;;;;;12.06;95.04;98641.03;5072391;28;20668;-70
2022/05/06 04:12:11;;;;;;;20.20;14.67;;;;;;;12.07;96.32;98650.66;5072806;28;20201;-71
2022/05/06 04:14:37;;;;;;;18.57;14.93;;;;;;;12.05;95.99;98643.91;5072818;28;20206;-71
2022/05/06 04:17:04;;;;;;;17.20;14.70;;;;;;;12.08;95.22;98657.63;5073265;28;20236;-71
2022/05/06 04:19:30;;;;;;;19.23;14.97;;;;;;;11.99;95.92;98650.94;5075826;28;20550;-70
2022/05/06 04:24:41;;;;;;;17.37;13.60;;;;;;;12.06;95.94;98657.03;5076008;28;20258;-70
2022/05/06 04:27:07;;;;;;;18.07;14.17;;;;;;;12.01;96.62;98662.19;5075739;28;20595;-71
2022/05/06 04:29:34;;;;;;;17.93;13.63;;;;;;;12.04;96.66;98666.28;5075973;28;20574;-71
2022/05/06 04:32:01;;;;;;;16.43;14.43;;;;;;;11.95;98.12;98660.38;5076028;28;20221;-70
2022/05/06 04:34:27;;;;;;;15.07;13.50;;;;;;;12.03;96.89;98662.78;5076043;28;20208;-71
2022/05/06 04:36:53;;;;;;;15.87;14.07;;;;;;;11.98;97.83;98667.94;5075932;28;20208;-71
2022/05/06 04:39:20;;;;;;;16.47;14.67;;;;;;;11.90;98.66;98665.53;5075505;28;20222;-71
2022/05/06 04:41:47;;;;;;;20.57;15.90;;;;;;;11.83;99.45;98667.41;5075685;28;20256;-70
2022/05/06 04:44:13;;;;;;;18.27;15.63;;;;;;;11.81;99.47;98669.47;5075628;28;20201;-71
2022/05/06 04:46:40;;;;;;;18.70;16.07;;;;;;;11.87;100.00;98663.28;5075519;28;20209;-70
2022/05/06 04:49:06;;;;;;;19.53;15.13;;;;;;;11.85;100.00;98665.34;5075434;28;20236;-71
2022/05/06 04:51:33;;;;;;;18.23;15.70;;;;;;;11.79;100.00;98668.03;5075505;28;20201;-70
2022/05/06 04:54:00;;;;;;;20.10;15.80;;;;;;;11.80;100.00;98672.34;5075165;28;20219;-71
2022/05/06 04:56:26;;;;;;;17.43;15.47;;;;;;;11.85;100.00;98676.00;5075588;28;20211;-71
2022/05/06 04:58:52;;;;;;;19.63;16.17;;;;;;;11.72;100.00;98676.06;5075289;28;20322;-70
2022/05/06 05:01:19;;;;;;;18.47;15.23;;;;;;;11.75;100.00;98678.28;5075030;28;20239;-70
2022/05/06 05:03:45;;;;;;;16.20;14.60;;;;;;;11.69;100.00;98673.81;5075864;28;20210;-71
2022/05/06 05:06:11;;;;;;;19.70;14.47;;;;;;;11.93;100.00;98674.97;5075115;28;20215;-71
2022/05/06 05:08:38;;;;;;;15.57;13.83;;;;;;;11.92;100.00;98679.47;5075181;28;20224;-70
2022/05/06 05:11:04;;;;;;;19.40;14.43;;;;;;;11.67;100.00;98686.50;5075082;28;20201;-71
2022/05/06 05:13:34;;;;;;;16.00;14.07;;;;;;;11.67;100.00;98686.50;5074886;28;20216;-71
2022/05/06 05:16:00;;;;;;;16.73;14.57;;;;;;;11.69;100.00;98683.66;5074816;28;20208;-70
2022/05/06 05:18:26;;;;;;;16.20;14.10;;;;;;;11.86;100.00;98682.97;5074903;28;20593;-70
2022/05/06 05:20:53;;;;;;;18.00;15.17;;;;;;;11.74;100.00;98692.66;5074953;28;20569;-70
2022/05/06 05:23:19;;;;;;;16.27;14.57;;;;;;;11.68;100.00;98695.34;5074837;28;20209;-70
2022/05/06 05:25:45;;;;;;;18.10;15.67;;;;;;;11.68;100.00;98688.16;5074659;28;20572;-71
2022/05/06 05:28:12;;;;;;;15.67;13.97;;;;;;;11.67;100.00;98691.84;5074687;28;20607;-71
2022/05/06 05:30:38;;;;;;;15.93;14.13;;;;;;;11.65;100.00;98701.06;5074581;28;20200;-71
2022/05/06 05:33:05;;;;;;;15.40;13.67;;;;;;;11.71;100.00;98698.38;5074604;28;20200;-70
2022/05/06 05:35:33;;;;;;;15.70;14.00;;;;;;;11.68;100.00;98693.50;5074316;28;20200;-70
2022/05/06 05:38:00;;;;;;;16.03;14.03;;;;;;;11.67;100.00;98702.50;5074353;28;20224;-71
2022/05/06 05:40:26;;;;;;;21.53;15.83;;;;;;;11.56;100.00;98700.47;5074341;28;20201;-71
2022/05/06 05:42:53;;;;;;;17.27;15.10;;;;;;;11.60;100.00;98698.22;5074198;28;20612;-71
2022/05/06 05:50:56;;;;;;;21.97;16.30;;;;;;;11.51;100.00;98692.28;5049032;28;20307;-71
2022/05/06 05:53:22;;;;;;;20.67;16.17;;;;;;;11.54;100.00;98699.03;5073718;28;20220;-71
2022/05/06 05:55:48;;;;;;;19.67;17.57;;;;;;;11.49;100.00;98693.53;5074079;28;20212;-71
2022/05/06 05:58:15;;;;;;;20.23;17.67;;;;;;;11.43;100.00;98695.16;5074541;28;20228;-71
2022/05/06 06:00:41;;;;;;;20.37;17.70;;;;;;;11.47;100.00;98696.38;5073949;28;20216;-71
2022/05/06 06:03:07;;;;;;;26.40;19.00;;;;;;;11.42;100.00;98698.03;5074050;28;20211;-71
2022/05/06 06:05:34;;;;;;;20.60;16.87;;;;;;;11.44;100.00;98696.78;5073657;28;20208;-71
2022/05/06 06:08:00;;;;;;;19.87;16.23;;;;;;;11.41;100.00;98701.72;5073451;28;20232;-70
2022/05/06 06:10:27;;;;;;;19.83;16.30;;;;;;;11.61;100.00;98705.22;5073613;28;20208;-71
2022/05/06 06:12:53;;;;;;;19.30;14.47;;;;;;;11.47;100.00;98716.84;5073509;28;20250;-71
2022/05/06 06:15:19;;;;;;;19.63;16.00;;;;;;;11.52;100.00;98711.75;5073958;28;20212;-70
2022/05/06 06:17:46;;;;;;;19.57;15.23;;;;;;;11.47;100.00;98707.03;5073882;28;20228;-71
2022/05/06 06:20:12;;;;;;;15.80;14.07;;;;;;;11.56;100.00;98707.63;5073765;28;20289;-71
2022/05/06 06:22:39;;;;;;;15.13;13.50;;;;;;;11.55;100.00;98711.31;5073608;28;20228;-71
2022/05/06 06:25:06;;;;;;;16.17;14.20;;;;;;;11.46;100.00;98716.06;5073721;28;20204;-71
2022/05/06 06:27:34;;;;;;;16.17;13.93;;;;;;;11.41;100.00;98717.69;5073101;28;20729;-71
2022/05/06 06:30:00;;;;;;;20.97;14.63;;;;;;;11.32;100.00;98713.63;5073864;28;20204;-71
2022/05/06 06:32:27;;;;;;;17.27;13.63;;;;;;;11.40;100.00;98713.41;5072881;28;20211;-70
2022/05/06 06:34:55;;;;;;;15.50;13.53;;;;;;;11.61;100.00;98708.66;5073500;28;20228;-70
2022/05/06 06:37:21;;;;;;;14.03;12.50;;;;;;;11.59;100.00;98724.03;5073975;28;20228;-71
2022/05/06 06:39:48;;;;;;;13.63;12.13;;;;;;;11.66;100.00;98716.03;5072657;28;20211;-70
2022/05/06 06:42:15;;;;;;;17.17;13.17;;;;;;;11.74;100.00;98729.09;5072977;28;20228;-71
2022/05/06 06:44:41;;;;;;;13.10;11.57;;;;;;;11.66;100.00;98724.84;5073231;28;20204;-70
2022/05/06 06:47:11;;;;;;;13.20;11.47;;;;;;;11.55;100.00;98713.97;5073122;28;20231;-70
2022/05/06 06:49:38;;;;;;;14.70;12.47;;;;;;;11.52;100.00;98717.09;5072900;28;20679;-70
2022/05/06 06:52:05;;;;;;;15.73;14.03;;;;;;;11.41;100.00;98726.53;5072805;28;20271;-71
2022/05/06 06:54:31;;;;;;;16.00;14.40;;;;;;;11.45;100.00;98725.06;5073353;28;20193;-70
2022/05/06 06:56:58;;;;;;;17.07;12.53;;;;;;;11.71;100.00;98721.56;5073233;28;20204;-71
2022/05/06 06:59:24;;;;;;;16.03;12.90;;;;;;;11.61;100.00;98726.50;5072949;28;20569;-71
2022/05/06 07:01:51;;;;;;;16.47;13.13;;;;;;;11.64;100.00;98723.41;5072955;28;20224;-70
2022/05/06 07:04:17;;;;;;;20.00;14.47;;;;;;;11.59;100.00;98721.34;5073155;28;20208;-70
2022/05/06 07:12:11;;;;;;;15.10;11.77;;;;;;;11.79;100.00;98737.28;5073312;28;20626;-70
2022/05/06 07:14:38;;;;;;;16.10;12.30;;;;;;;11.92;100.00;98727.41;5072836;28;20201;-70
2022/05/06 07:17:05;;;;;;;12.27;11.00;;;;;;;11.99;100.00;98733.56;5072453;28;20239;-70
2022/05/06 07:19:32;;;;;;;15.43;12.07;;;;;;;11.93;100.00;98738.91;5073144;28;20238;-71
2022/05/06 07:21:59;;;;;;;12.10;10.00;;;;;;;11.76;97.97;98743.84;5073078;28;20220;-71
2022/05/06 07:24:25;;;;;;;10.87;9.57;;;;;;;11.95;97.58;98744.81;5073011;28;20205;-70
2022/05/06 07:26:52;;;;;;;12.57;10.70;;;;;;;11.94;96.32;98744.00;5072861;28;20209;-70
2022/05/06 07:29:19;;;;;;;10.17;9.17;;;;;;;12.01;94.15;98742.13;5072917;28;20204;-71
2022/05/06 07:31:46;;;;;;;9.43;8.53;;;;;;;12.03;95.07;98753.41;5072566;28;20207;-70
2022/05/06 07:34:15;;;;;;;11.37;8.63;;;;;;;11.86;91.89;98749.59;5072941;28;20229;-71
2022/05/06 07:36:42;;;;;;;10.90;9.80;;;;;;;11.92;96.14;98739.91;5073021;28;20201;-71
2022/05/06 07:39:13;;;;;;;10.73;8.83;;;;;;;11.87;94.06;98745.06;5073069;28;20224;-70
2022/05/06 07:41:39;;;;;;;9.33;8.43;;;;;;;12.00;93.18;98751.16;5072949;28;20213;-71
2022/05/06 07:44:07;;;;;;;14.90;8.87;;;;;;;11.92;93.88;98748.75;5072781;28;20201;-71
2022/05/06 07:46:34;;;;;;;9.90;8.27;;;;;;;11.95;94.25;98744.81;5072677;28;20258;-71
2022/05/06 07:49:02;;;;;;;9.97;8.83;;;;;;;11.99;97.83;98746.88;5072822;28;20252;-71
2022/05/06 07:51:28;;;;;;;10.50;9.40;;;;;;;12.15;98.33;98751.72;5073056;28;20213;-70
2022/05/06 07:53:56;;;;;;;9.70;8.70;;;;;;;12.22;98.65;98752.53;5076016;28;20216;-70
2022/05/06 07:56:28;;;;;;;10.37;8.37;;;;;;;12.38;94.05;98754.69;5076510;28;20224;-70
2022/05/06 07:58:55;;;;;;;9.60;8.03;;;;;;;12.38;92.52;98746.69;5076578;28;20231;-70
2022/05/06 08:04:32;;;;;;;9.80;8.80;;;;;;;12.54;94.79;98745.34;5076360;28;20264;-70
2022/05/06 08:06:54;;;;;;;7.97;7.27;;;;;;;12.45;89.89;98743.97;5076109;28;20252;-70
2022/05/06 08:09:21;;;;;;;8.83;8.13;;;;;;;12.86;89.54;98742.47;5076858;28;20215;-71
2022/05/06 08:11:48;;;;;;;10.47;8.07;;;;;;;12.51;86.97;98753.78;5076070;28;20204;-70
2022/05/06 08:14:16;;;;;;;9.47;8.40;;;;;;;12.68;90.23;98757.56;5076230;28;20208;-70
2022/05/06 08:16:43;;;;;;;8.90;7.70;;;;;;;12.56;87.15;98762.78;5075740;28;20229;-70
2022/05/06 08:19:10;;;;;;;8.90;7.90;;;;;;;12.40;89.59;98765.97;5076113;28;20210;-70
2022/05/06 08:21:36;;;;;;;10.87;8.73;;;;;;;12.46;88.82;98757.09;5075799;28;20613;-70
2022/05/06 08:24:03;;;;;;;11.93;9.70;;;;;;;12.57;88.30;98752.94;5075737;28;20576;-70
2022/05/06 08:26:30;;;;;;;14.90;10.13;;;;;;;12.84;88.20;98760.53;5075730;28;20685;-70
2022/05/06 08:28:56;;;;;;;11.17;9.53;;;;;;;12.72;92.70;98759.63;5075860;28;20221;-70
2022/05/06 08:31:23;;;;;;;12.83;9.23;;;;;;;12.83;91.99;98768.75;5076075;28;20233;-70
2022/05/06 08:33:49;;;;;;;10.27;7.80;;;;;;;12.95;85.60;98765.19;5076028;28;20201;-70
2022/05/06 08:36:15;;;;;;;8.23;7.43;;;;;;;12.91;88.41;98764.00;5075537;28;20211;-70
2022/05/06 08:38:44;;;;;;;10.63;7.87;;;;;;;12.87;85.94;98764.63;5075674;28;20238;-70
2022/05/06 08:41:11;;;;;;;11.00;8.60;;;;;;;12.98;84.48;98767.44;5075564;28;20207;-70
2022/05/06 08:43:38;;;;;;;9.93;8.07;;;;;;;12.96;83.93;98766.81;5075617;28;20227;-70
2022/05/06 08:51:36;;;;;;;9.10;8.17;;;;;;;13.05;84.33;98773.56;5044056;28;20212;-69
2022/05/06 08:54:03;;;;;;;8.20;7.20;;;;;;;13.07;81.82;98774.16;5075220;28;20219;-69
2022/05/06 08:56:30;;;;;;;8.40;7.50;;;;;;;13.41;80.19;98768.34;5075456;28;20205;-70
2022/05/06 08:58:57;;;;;;;11.90;8.37;;;;;;;13.45;80.46;98766.03;5075038;28;20717;-70
2022/05/06 09:01:25;;;;;;;9.73;7.50;;;;;;;13.57;78.31;98764.28;5075308;28;20230;-69
2022/05/06 09:03:52;;;;;;;11.27;7.50;;;;;;;13.66;81.26;98765.63;5074850;28;20265;-69
2022/05/06 09:06:29;;;;;;;12.23;8.20;;;;;;;13.70;80.44;98767.63;5075535;28;20201;-70
2022/05/06 09:08:57;;;;;;;9.53;7.60;;;;;;;13.67;79.23;98772.59;5075108;28;20231;-70
2022/05/06 09:14:07;;;;;;;9.33;7.13;;;;;;;13.84;79.72;98774.47;5074360;28;20822;-70
2022/05/06 09:16:41;;;;;;;8.63;7.23;;;;;;;14.02;77.33;98773.66;5074991;28;20204;-70
2022/05/06 09:19:17;;;;;;;9.53;7.70;;;;;;;13.75;80.85;98770.44;5074633;28;20277;-70
2022/05/06 09:22:05;;;;;;;13.10;7.47;;;;;;;14.00;78.08;98773.06;5074874;28;20296;-70
2022/05/06 09:24:32;;;;;;;8.33;7.27;;;;;;;13.77;76.38;98784.41;5074666;28;20203;-70
2022/05/06 09:27:01;;;;;;;12.53;7.63;;;;;;;13.52;81.49;98780.97;5074464;28;20702;-70
2022/05/06 09:29:33;;;;;;;8.70;6.97;;;;;;;13.54;79.91;98781.56;5074676;28;20204;-70
2022/05/06 09:32:30;;;;;;;10.47;7.10;;;;;;;13.63;77.40;98776.75;5074435;28;20211;-70
2022/05/06 09:34:59;;;;;;;9.63;7.50;;;;;;;14.14;76.91;98783.38;5074723;28;20207;-69
2022/05/06 09:37:46;;;;;;;8.00;6.07;;;;;;;14.17;74.29;98782.94;5074545;28;20227;-70
2022/05/06 09:40:21;;;;;;;12.47;6.80;;;;;;;14.21;77.10;98780.66;5074306;28;20707;-70
2022/05/06 09:42:57;;;;;;;8.57;6.57;;;;;;;14.15;76.21;98784.22;5074441;28;20209;-70
2022/05/06 09:45:38;;;;;;;8.20;6.63;;;;;;;14.10;78.97;98779.53;5074062;28;20209;-69
2022/05/06 09:48:06;;;;;;;8.63;7.13;;;;;;;14.49;75.63;98768.38;5074106;28;20628;-70
2022/05/06 09:50:45;;;;;;;6.80;6.07;;;;;;;14.64;72.58;98774.13;5074426;28;20204;-69
2022/05/06 09:53:13;;;;;;;9.20;6.37;;;;;;;14.75;71.86;98773.34;5073944;28;20216;-69
2022/05/06 09:55:42;;;;;;;10.97;6.70;;;;;;;14.83;74.71;98775.69;5073879;28;20299;-70
2022/05/06 09:58:09;;;;;;;14.27;6.50;;;;;;;15.00;70.43;98775.84;5073639;28;20630;-69
2022/05/06 10:00:38;;;;;;;11.43;6.17;;;;;;;15.09;74.51;98771.78;5074125;28;20204;-70
2022/05/06 10:03:04;;;;;;;12.40;6.43;;;;;;;15.26;70.25;98768.22;5073686;28;20703;-70
2022/05/06 10:05:33;;;;;;;8.17;6.80;;;;;;;15.55;74.67;98764.66;5073863;28;20213;-70
2022/05/06 10:08:04;;;;;;;7.23;6.10;;;;;;;15.36;74.21;98760.47;5073543;28;20235;-70
2022/05/06 10:10:45;;;;;;;9.17;6.40;;;;;;;15.48;70.01;98769.34;5074030;28;20188;-72
2022/05/06 10:13:17;;;;;;;8.53;6.50;;;;;;;15.64;72.21;98760.56;5074369;28;20213;-70
2022/05/06 10:15:43;;;;;;;7.87;6.53;;;;;;;15.77;71.43;98760.34;5072988;28;20628;-71
2022/05/06 10:18:10;;;;;;;7.00;6.07;;;;;;;15.91;72.74;98764.41;5072460;28;20229;-70
2022/05/06 10:20:36;;;;;;;6.73;6.07;;;;;;;16.42;68.45;98761.72;5064209;28;20216;-70
2022/05/06 10:23:07;;;;;;;7.13;6.43;;;;;;;16.17;66.74;98763.88;5053624;28;20236;-70
2022/05/06 10:25:42;;;;;;;8.83;5.83;;;;;;;16.15;65.31;98765.97;5053186;28;20185;-70
2022/05/06 10:34:12;;;;;;;7.30;6.00;;;;;;;16.25;67.54;98749.28;5073412;28;20216;-70
2022/05/06 10:36:42;;;;;;;9.13;6.00;;;;;;;15.69;65.02;98755.31;5073414;28;20210;-70
2022/05/06 10:39:20;;;;;;;7.47;5.63;;;;;;;16.17;62.88;98752.31;5073225;28;20231;-70
2022/05/06 10:42:11;;;;;;;6.80;5.57;;;;;;;16.62;62.29;98754.06;5073465;28;20200;-70
2022/05/06 10:44:41;;;;;;;6.27;5.67;;;;;;;16.81;62.78;98749.28;5073943;28;20197;-71
2022/05/06 10:47:13;;;;;;;10.60;5.37;;;;;;;16.83;60.13;98744.50;5073321;28;20244;-70
2022/05/06 10:49:40;;;;;;;5.37;4.80;;;;;;;17.03;59.50;98739.47;5072960;28;20212;-70
2022/05/06 10:52:20;;;;;;;5.60;4.90;;;;;;;17.20;59.10;98741.09;5073195;28;20218;-70
2022/05/06 10:54:54;;;;;;;6.10;4.83;;;;;;;16.56;61.89;98730.06;5073274;28;20188;-71
2022/05/06 10:57:25;;;;;;;6.47;5.03;;;;;;;16.94;61.86;98735.56;5073224;28;20800;-70
2022/05/06 10:59:54;;;;;;;7.33;4.70;;;;;;;16.90;59.10;98750.53;5073266;28;20203;-70
2022/05/06 11:02:32;;;;;;;6.13;4.60;;;;;;;17.04;59.79;98728.50;5073087;28;20225;-70
2022/05/06 11:05:01;;;;;;;5.70;5.00;;;;;;;17.15;59.58;98740.22;5073237;28;20302;-70
2022/05/06 11:07:30;;;;;;;5.00;4.50;;;;;;;17.14;58.07;98736.72;5072871;28;20589;-71
2022/05/06 11:09:57;;;;;;;5.83;4.60;;;;;;;17.01;58.43;98738.91;5073225;28;20242;-71
2022/05/06 11:12:30;;;;;;;7.53;5.40;;;;;;;16.95;57.12;98742.56;5073048;28;20200;-71
2022/05/06 11:14:57;;;;;;;5.77;4.70;;;;;;;17.21;56.57;98740.06;5072907;28;20212;-71
2022/05/06 11:17:24;;;;;;;6.77;4.60;;;;;;;17.40;57.46;98743.34;5072912;28;20232;-71
2022/05/06 11:19:54;;;;;;;7.97;5.00;;;;;;;16.81;57.86;98746.59;5073011;28;20217;-71
2022/05/06 11:22:23;;;;;;;5.80;4.63;;;;;;;17.40;56.89;98738.78;5072984;28;20224;-70
2022/05/06 11:24:49;;;;;;;5.27;4.77;;;;;;;17.34;59.07;98734.38;5071969;28;20227;-70
2022/05/06 11:27:17;;;;;;;5.13;4.73;;;;;;;16.90;55.75;98737.09;5075704;28;20231;-70
2022/05/06 11:29:56;;;;;;;7.20;4.40;;;;;;;17.59;56.27;98733.94;5076845;28;20222;-70
2022/05/06 11:32:27;;;;;;;6.30;4.97;;;;;;;17.80;54.50;98734.00;5076510;28;20183;-71
2022/05/06 11:34:59;;;;;;;5.63;4.13;;;;;;;17.76;54.19;98735.53;5076779;28;20212;-70
2022/05/06 11:37:33;;;;;;;5.87;4.70;;;;;;;17.57;54.23;98720.75;5076660;28;20228;-70
2022/05/06 11:40:18;;;;;;;5.10;4.60;;;;;;;17.48;55.59;98735.69;5076489;28;20713;-70
2022/05/06 11:42:46;;;;;;;5.50;4.43;;;;;;;17.77;55.98;98725.59;5075403;28;20205;-70
2022/05/06 11:48:13;;;;;;;7.70;4.33;;;;;;;17.77;57.35;98736.34;5076555;28;20227;-70
2022/05/06 11:50:42;;;;;;;9.10;4.93;;;;;;;17.75;54.73;98730.41;5077099;28;20193;-70
2022/05/06 11:53:14;;;;;;;6.60;4.90;;;;;;;17.94;53.74;98729.88;5076259;28;20212;-70
2022/05/06 11:55:43;;;;;;;8.23;5.40;;;;;;;16.61;55.49;98736.31;5075274;28;20212;-71
2022/05/06 11:58:13;;;;;;;5.83;4.83;;;;;;;17.12;57.36;98733.47;5076380;28;20229;-70
2022/05/06 12:00:40;;;;;;;4.77;4.27;;;;;;;17.10;56.73;98730.19;5076640;28;20205;-70
2022/05/06 12:03:09;;;;;;;5.00;4.57;;;;;;;17.13;55.44;98731.56;5076323;28;20220;-70
2022/05/06 12:05:37;;;;;;;6.57;4.50;;;;;;;17.01;55.04;98723.59;5076362;28;20258;-70
2022/05/06 12:08:04;;;;;;;8.13;4.37;;;;;;;17.38;56.06;98730.09;5076416;28;20224;-70
2022/05/06 12:10:33;;;;;;;9.10;4.77;;;;;;;17.39;56.82;98726.41;5076432;28;20205;-71
2022/05/06 12:13:01;;;;;;;6.63;4.33;;;;;;;17.76;56.25;98727.47;5076375;28;20200;-70